This is the latest recevied weather packets stored in our database for station/object F4LNO-10. If no packets are shown the sender has not sent any weather packets the latest 10 day(s).
| Time | Temp. | Humidity | Pressure | Rain* | Wind** | Luminosity | Snow |
|---|---|---|---|---|---|---|---|
| 1777844166 | 22.78° C | 60% | 1018.2 hPa | - | - | - | - |
| 1777843265 | 22.78° C | 60% | 1018 hPa | - | - | - | - |
| 1777842365 | 23.33° C | 60% | 1017.9 hPa | - | - | - | - |
| 1777841464 | 23.33° C | 61% | 1017.8 hPa | - | - | - | - |
| 1777840563 | 23.33° C | 62% | 1017.9 hPa | - | - | - | - |
| 1777839662 | 21.11° C | 69% | 1018 hPa | - | - | - | - |
| 1777838761 | 23.33° C | 69% | 1018.3 hPa | - | - | - | - |
| 1777837861 | 22.78° C | 68% | 1018.4 hPa | - | - | - | - |
| 1777836980 | 22.78° C | 61% | 1018.4 hPa | - | - | - | - |
| 1777836079 | 22.78° C | 63% | 1018.2 hPa | - | - | - | - |
| 1777835179 | 22.78° C | 59% | 1018.2 hPa | - | - | - | - |
| 1777834278 | 22.78° C | 59% | 1018.1 hPa | - | - | - | - |
| 1777833377 | 22.78° C | 59% | 1018.1 hPa | - | - | - | - |
| 1777832476 | 22.78° C | 58% | 1018.1 hPa | - | - | - | - |
| 1777831575 | 22.22° C | 60% | 1018.2 hPa | - | - | - | - |
| 1777830674 | 22.78° C | 58% | 1018 hPa | - | - | - | - |
| 1777829774 | 21.67° C | 60% | 1018.1 hPa | - | - | - | - |
| 1777828873 | 22.78° C | 57% | 1018.1 hPa | - | - | - | - |
| 1777827972 | 22.78° C | 57% | 1018.1 hPa | - | - | - | - |
| 1777827071 | 20.56° C | 61% | 1018.1 hPa | - | - | - | - |
| 1777826170 | 22.22° C | 56% | 1018.1 hPa | - | - | - | - |
| 1777825269 | 21.11° C | 60% | 1018.2 hPa | - | - | - | - |
| 1777824368 | 22.22° C | 55% | 1018.3 hPa | - | - | - | - |
| 1777823468 | 22.22° C | 54% | 1018.4 hPa | - | - | - | - |
| 1777822567 | 22.78° C | 53% | 1018.5 hPa | - | - | - | - |
* Rain since midnight (hover to see other rain measurements)
** Current wind speed in m/s (hover to see current wind gust speed)